Time;durP1;ratioP1;P1;durP2;ratioP2;P2;SDS_P1;SDS_P2;PMS_P1;PMS_P2;Temp;Humidity;BMP_temperature;BMP_pressure;BME280_temperature;BME280_humidity;BME280_pressure;Samples;Min_cycle;Max_cycle;Signal;HPM_P1;HPM_P2
2024/03/19 00:01:09;;;;;;;7.38;3.78;;;8.90;93.80;;;;;;5081506;28;20448;-71
2024/03/19 00:03:34;;;;;;;6.75;3.53;;;8.90;93.80;;;;;;5078591;28;20417;-71
2024/03/19 00:06:00;;;;;;;9.70;3.47;;;8.90;93.80;;;;;;5076525;28;20424;-70
2024/03/19 00:08:26;;;;;;;6.65;3.83;;;8.90;93.70;;;;;;5079316;28;20036;-70
2024/03/19 00:10:52;;;;;;;8.65;3.38;;;9.00;93.80;;;;;;5082766;28;20048;-70
2024/03/19 00:13:18;;;;;;;9.65;4.72;;;9.00;93.70;;;;;;5079831;28;20028;-70
2024/03/19 00:15:47;;;;;;;14.55;4.97;;;9.00;93.70;;;;;;5077145;28;20662;-70
2024/03/19 00:18:12;;;;;;;10.32;3.85;;;8.90;93.60;;;;;;5064167;28;20037;-71
2024/03/19 00:20:38;;;;;;;8.63;3.83;;;8.90;93.70;;;;;;5075749;28;20451;-70
2024/03/19 00:23:03;;;;;;;8.32;3.63;;;8.90;93.70;;;;;;5076724;28;20045;-70
2024/03/19 00:25:30;;;;;;;8.15;3.92;;;8.90;93.80;;;;;;5064585;28;20075;-70
2024/03/19 00:27:55;;;;;;;5.32;3.17;;;8.90;93.80;;;;;;5062523;28;20411;-70
2024/03/19 00:30:21;;;;;;;8.27;3.70;;;9.00;93.80;;;;;;5065347;28;20033;-70
2024/03/19 00:32:47;;;;;;;9.15;4.28;;;9.00;93.80;;;;;;5045898;28;20029;-70
2024/03/19 00:35:13;;;;;;;10.75;3.83;;;8.90;93.70;;;;;;5081138;28;20036;-70
2024/03/19 00:37:41;;;;;;;9.23;3.90;;;8.90;93.70;;;;;;5077959;28;20106;-70
2024/03/19 00:40:13;;;;;;;9.43;3.50;;;9.00;93.70;;;;;;5077168;28;20081;-70
2024/03/19 00:42:39;;;;;;;11.40;3.95;;;9.00;93.80;;;;;;5082841;28;20514;-71
2024/03/19 00:45:05;;;;;;;8.95;3.67;;;9.00;93.80;;;;;;5066175;28;20043;-70
2024/03/19 00:47:31;;;;;;;5.70;3.03;;;9.00;93.80;;;;;;5060720;28;20788;-70
2024/03/19 00:49:57;;;;;;;8.48;3.50;;;8.90;93.80;;;;;;5080849;28;20068;-70
2024/03/19 00:52:22;;;;;;;8.80;3.38;;;8.90;93.90;;;;;;5079936;28;20051;-70
2024/03/19 00:54:48;;;;;;;9.27;3.85;;;8.90;93.80;;;;;;5080505;28;20618;-70
2024/03/19 00:57:13;;;;;;;6.18;3.50;;;8.90;93.90;;;;;;5061563;28;20037;-70
2024/03/19 00:59:39;;;;;;;5.68;3.10;;;8.80;93.90;;;;;;5078813;28;20041;-70
2024/03/19 01:02:06;;;;;;;7.80;3.70;;;8.80;93.90;;;;;;5078436;28;20038;-70
2024/03/19 01:04:33;;;;;;;10.43;3.10;;;8.80;94.00;;;;;;5078163;28;20045;-71
2024/03/19 01:07:00;;;;;;;6.63;3.10;;;8.80;94.00;;;;;;5078585;28;20119;-71
2024/03/19 01:09:27;;;;;;;8.27;3.70;;;8.80;94.00;;;;;;5076129;28;20503;-70
2024/03/19 01:11:53;;;;;;;7.45;3.63;;;8.80;94.00;;;;;;5059518;28;20035;-70
2024/03/19 01:14:20;;;;;;;6.63;3.72;;;8.80;94.00;;;;;;5080802;28;20035;-70
2024/03/19 01:16:45;;;;;;;8.05;3.30;;;8.80;94.00;;;;;;5061985;28;20054;-70
2024/03/19 01:19:11;;;;;;;6.30;3.10;;;8.80;94.00;;;;;;5060967;28;20032;-70
2024/03/19 01:21:37;;;;;;;8.80;3.40;;;8.70;94.10;;;;;;5064481;28;20037;-70
2024/03/19 01:24:02;;;;;;;7.20;3.42;;;8.80;94.10;;;;;;5079307;28;20082;-70
2024/03/19 01:26:28;;;;;;;7.32;3.58;;;8.70;94.10;;;;;;5080154;28;20496;-70
2024/03/19 01:28:54;;;;;;;7.97;3.90;;;8.70;94.10;;;;;;5079884;28;20594;-70
2024/03/19 01:31:19;;;;;;;7.53;3.63;;;8.70;94.10;;;;;;5078024;28;20021;-70
2024/03/19 01:33:45;;;;;;;6.32;2.95;;;8.70;94.20;;;;;;5062552;28;20040;-70
2024/03/19 01:36:10;;;;;;;10.32;3.67;;;8.70;94.20;;;;;;5077226;28;20056;-70
2024/03/19 01:38:37;;;;;;;8.93;3.63;;;8.60;94.20;;;;;;5075173;28;20771;-70
2024/03/19 01:41:04;;;;;;;8.80;3.20;;;8.60;94.20;;;;;;5076526;28;20035;-70
2024/03/19 01:43:29;;;;;;;10.90;3.20;;;8.60;94.20;;;;;;5077023;28;20505;-70
2024/03/19 01:46:15;;;;;;;7.82;3.00;;;8.60;94.20;;;;;;5074971;28;20563;-70
2024/03/19 01:48:41;;;;;;;7.80;3.35;;;8.60;94.30;;;;;;5081294;28;20161;-70
2024/03/19 01:51:08;;;;;;;9.52;3.25;;;8.70;94.30;;;;;;5064891;28;20494;-70
2024/03/19 01:53:34;;;;;;;7.88;3.25;;;8.60;94.20;;;;;;5073673;28;20117;-70
2024/03/19 01:56:00;;;;;;;4.75;2.80;;;8.60;94.30;;;;;;5055235;28;20103;-70
2024/03/19 01:58:30;;;;;;;11.95;3.53;;;8.50;94.40;;;;;;5066789;28;20032;-70
2024/03/19 02:00:55;;;;;;;5.35;2.85;;;8.60;94.40;;;;;;5081163;28;20055;-70
2024/03/19 02:03:22;;;;;;;9.73;2.80;;;8.50;94.40;;;;;;5078308;28;20090;-70
2024/03/19 02:05:48;;;;;;;8.25;3.22;;;8.50;94.50;;;;;;5077564;28;20040;-70
2024/03/19 02:08:16;;;;;;;4.95;3.03;;;8.50;94.60;;;;;;5069004;28;20086;-70
2024/03/19 02:10:43;;;;;;;;;;;8.50;94.40;;;;;;5040121;28;20681;-70
2024/03/19 02:13:09;;;;;;;11.77;3.13;;;8.50;94.60;;;;;;5058890;28;20027;-70
2024/03/19 02:15:35;;;;;;;7.28;2.70;;;8.50;94.50;;;;;;5079136;28;20078;-70
2024/03/19 02:18:01;;;;;;;7.40;3.17;;;8.40;94.60;;;;;;5079833;28;20038;-71
2024/03/19 02:20:26;;;;;;;7.95;3.30;;;8.40;94.60;;;;;;5059534;28;20040;-70
2024/03/19 02:22:52;;;;;;;11.63;3.03;;;8.40;94.70;;;;;;5080733;28;20408;-70
2024/03/19 02:25:18;;;;;;;7.45;3.08;;;8.40;94.80;;;;;;5077783;28;20035;-70
2024/03/19 02:27:44;;;;;;;7.25;3.30;;;8.40;94.70;;;;;;5073256;28;20035;-70
2024/03/19 02:30:10;;;;;;;9.70;3.03;;;8.50;94.80;;;;;;5078671;28;20111;-70
2024/03/19 02:32:36;;;;;;;7.32;3.25;;;8.50;94.80;;;;;;5084197;28;20037;-70
2024/03/19 02:35:03;;;;;;;10.38;3.50;;;8.40;94.80;;;;;;5075983;28;20715;-70
2024/03/19 02:37:28;;;;;;;8.23;3.58;;;8.40;94.90;;;;;;5076273;28;20016;-70
2024/03/19 02:39:54;;;;;;;6.70;3.78;;;8.40;94.80;;;;;;5061808;28;20629;-70
2024/03/19 02:42:20;;;;;;;6.40;3.47;;;8.40;94.80;;;;;;5053958;28;20057;-70
2024/03/19 02:44:46;;;;;;;6.72;3.33;;;8.40;94.90;;;;;;5061381;28;20043;-70
2024/03/19 02:47:11;;;;;;;7.00;3.50;;;8.40;94.90;;;;;;5076542;28;20409;-70
2024/03/19 02:49:37;;;;;;;9.15;3.78;;;8.40;95.00;;;;;;5072961;28;20040;-70
2024/03/19 02:52:03;;;;;;;6.38;2.63;;;8.40;95.10;;;;;;5054896;28;20028;-70
2024/03/19 02:54:28;;;;;;;7.03;3.03;;;8.40;95.00;;;;;;5058444;28;20041;-71
2024/03/19 02:56:54;;;;;;;7.60;3.08;;;8.40;95.10;;;;;;5069851;28;20036;-70
2024/03/19 02:59:20;;;;;;;6.80;3.03;;;8.40;95.20;;;;;;5062842;28;20037;-70
2024/03/19 03:01:46;;;;;;;7.25;2.97;;;8.40;95.20;;;;;;5059682;28;20119;-70
2024/03/19 03:04:12;;;;;;;6.72;3.10;;;8.30;95.20;;;;;;5085634;28;20668;-69
2024/03/19 03:06:38;;;;;;;5.25;3.03;;;8.30;95.10;;;;;;5073876;28;20047;-70
2024/03/19 03:09:06;;;;;;;6.20;2.95;;;8.30;95.20;;;;;;5073380;28;20024;-70
2024/03/19 03:11:32;;;;;;;5.53;3.30;;;8.30;95.00;;;;;;5076407;28;20094;-70
2024/03/19 03:13:57;;;;;;;5.45;2.67;;;8.30;94.90;;;;;;5074321;28;20040;-70
2024/03/19 03:16:23;;;;;;;5.97;2.95;;;8.20;95.00;;;;;;5077880;28;20027;-70
2024/03/19 03:18:49;;;;;;;6.63;2.97;;;8.20;95.10;;;;;;5077750;28;20060;-70
2024/03/19 03:21:15;;;;;;;7.60;2.85;;;8.20;95.10;;;;;;5057150;28;20078;-70
2024/03/19 03:23:41;;;;;;;5.63;2.85;;;8.20;95.20;;;;;;5074414;28;20443;-71
2024/03/19 03:26:07;;;;;;;6.75;3.40;;;8.20;95.10;;;;;;5070448;28;20033;-70
2024/03/19 03:28:32;;;;;;;5.38;2.88;;;8.20;95.10;;;;;;5054561;28;20119;-70
2024/03/19 03:30:58;;;;;;;5.63;2.53;;;8.20;95.10;;;;;;5038352;28;20043;-70
2024/03/19 03:33:24;;;;;;;7.95;2.80;;;8.10;95.10;;;;;;5069633;28;20028;-70
2024/03/19 03:35:49;;;;;;;9.90;3.70;;;8.10;95.10;;;;;;5073243;28;20079;-70
2024/03/19 03:38:15;;;;;;;7.55;3.13;;;8.10;95.10;;;;;;5069094;28;20049;-70
2024/03/19 03:40:41;;;;;;;9.38;3.10;;;8.10;95.30;;;;;;5073912;28;20406;-70
2024/03/19 03:43:07;;;;;;;14.02;3.70;;;8.00;95.30;;;;;;5059583;28;20120;-70
2024/03/19 03:45:33;;;;;;;12.45;3.53;;;8.00;95.40;;;;;;5074411;28;20123;-70
2024/03/19 03:47:58;;;;;;;10.77;3.40;;;8.00;95.30;;;;;;5073439;28;20502;-70
2024/03/19 03:50:24;;;;;;;6.50;3.05;;;7.90;95.40;;;;;;5052902;28;20051;-70
2024/03/19 03:52:49;;;;;;;10.43;3.50;;;7.90;95.40;;;;;;5072856;28;20028;-70
2024/03/19 03:55:15;;;;;;;9.65;3.67;;;7.90;95.50;;;;;;5072550;28;20116;-69
2024/03/19 03:57:41;;;;;;;7.07;3.28;;;7.80;95.40;;;;;;5071647;28;20587;-70
2024/03/19 04:00:08;;;;;;;11.07;3.65;;;7.80;95.50;;;;;;5042103;28;20041;-69
2024/03/19 04:02:35;;;;;;;13.65;3.83;;;7.80;95.40;;;;;;5050329;28;20051;-70
2024/03/19 04:05:01;;;;;;;9.20;3.60;;;7.80;95.50;;;;;;5053960;28;20059;-70
2024/03/19 04:07:27;;;;;;;10.27;4.43;;;7.70;95.60;;;;;;5071940;28;20472;-69
2024/03/19 04:09:52;;;;;;;10.02;3.83;;;7.70;95.60;;;;;;5050524;28;20580;-69
2024/03/19 04:12:18;;;;;;;9.90;4.10;;;7.70;95.70;;;;;;5048428;28;20505;-70
2024/03/19 04:14:43;;;;;;;15.70;4.28;;;7.70;95.90;;;;;;5048628;28;20537;-69
2024/03/19 04:17:12;;;;;;;11.05;4.30;;;7.60;95.90;;;;;;5058718;28;20044;-70
2024/03/19 04:19:38;;;;;;;12.63;3.88;;;7.60;95.90;;;;;;5070419;28;20624;-70
2024/03/19 04:22:03;;;;;;;17.10;4.30;;;7.50;96.00;;;;;;5059974;28;20047;-70
2024/03/19 04:24:29;;;;;;;12.93;3.92;;;7.50;96.10;;;;;;5074216;28;20417;-70
2024/03/19 04:26:55;;;;;;;10.18;4.13;;;7.50;96.10;;;;;;5070284;28;20036;-70
2024/03/19 04:29:20;;;;;;;10.35;4.65;;;7.40;96.10;;;;;;5055802;28;20340;-70
2024/03/19 04:31:46;;;;;;;12.55;4.15;;;7.40;96.20;;;;;;5073340;28;20029;-70
2024/03/19 04:34:12;;;;;;;5.97;3.40;;;7.40;96.20;;;;;;5077516;28;20016;-69
2024/03/19 04:36:38;;;;;;;9.50;3.83;;;7.30;96.40;;;;;;5081654;28;20055;-70
2024/03/19 04:39:10;;;;;;;14.27;4.18;;;7.30;96.30;;;;;;5076186;28;20039;-70
2024/03/19 04:41:38;;;;;;;9.02;3.88;;;7.30;96.20;;;;;;5072609;28;20033;-70
2024/03/19 04:44:04;;;;;;;10.90;3.58;;;7.20;96.20;;;;;;5072827;28;21129;-70
2024/03/19 04:46:30;;;;;;;13.13;4.22;;;7.20;96.30;;;;;;5036669;28;20595;-70
2024/03/19 04:48:56;;;;;;;14.93;3.78;;;7.10;96.30;;;;;;5078578;28;20055;-70
2024/03/19 04:51:21;;;;;;;7.88;3.40;;;7.00;96.40;;;;;;5063245;28;20028;-70
2024/03/19 04:53:47;;;;;;;9.73;3.13;;;7.00;96.60;;;;;;5066466;28;20409;-69
2024/03/19 04:56:12;;;;;;;10.52;3.05;;;7.00;96.60;;;;;;5044681;28;20051;-70
2024/03/19 04:58:38;;;;;;;7.55;3.33;;;7.00;96.60;;;;;;5077290;28;20033;-70
2024/03/19 05:01:05;;;;;;;8.73;4.35;;;6.90;96.60;;;;;;5073885;28;20128;-70
2024/03/19 05:03:31;;;;;;;11.52;3.92;;;6.80;96.80;;;;;;5079152;28;20115;-70
2024/03/19 05:05:56;;;;;;;8.30;4.35;;;6.80;96.70;;;;;;5081098;28;20035;-70
2024/03/19 05:08:22;;;;;;;9.45;4.57;;;6.80;96.80;;;;;;5074875;28;20062;-70
2024/03/19 05:10:49;;;;;;;8.85;4.20;;;6.70;97.00;;;;;;5058007;28;20032;-70
2024/03/19 05:13:15;;;;;;;13.23;4.25;;;6.70;97.00;;;;;;5082068;28;20024;-70
2024/03/19 05:15:40;;;;;;;16.80;4.88;;;6.70;97.00;;;;;;5073074;28;20054;-70
2024/03/19 05:18:07;;;;;;;14.05;4.97;;;6.70;97.10;;;;;;5052662;28;20032;-69
2024/03/19 05:20:33;;;;;;;11.95;4.78;;;6.60;97.20;;;;;;5074804;28;20040;-69
2024/03/19 05:22:58;;;;;;;13.93;4.75;;;6.60;97.20;;;;;;5065022;28;20569;-70
2024/03/19 05:25:24;;;;;;;12.75;5.05;;;6.60;97.20;;;;;;5057498;28;20036;-66
2024/03/19 05:27:50;;;;;;;11.13;5.47;;;6.50;97.40;;;;;;5077198;28;20028;-66
2024/03/19 05:30:15;;;;;;;21.27;6.00;;;6.50;97.40;;;;;;5072378;28;20532;-66
2024/03/19 05:32:41;;;;;;;12.63;4.70;;;6.50;97.60;;;;;;5076972;28;20649;-66
2024/03/19 05:35:07;;;;;;;12.07;4.63;;;6.50;97.50;;;;;;5073586;28;20576;-66
2024/03/19 05:37:33;;;;;;;10.52;4.30;;;6.50;97.50;;;;;;5074655;28;20115;-66
2024/03/19 05:39:58;;;;;;;18.63;5.18;;;6.40;97.60;;;;;;5059201;28;20155;-66
2024/03/19 05:42:24;;;;;;;13.57;4.32;;;6.40;97.50;;;;;;5079391;28;20028;-66
2024/03/19 05:44:49;;;;;;;9.85;4.53;;;6.50;97.70;;;;;;5071025;28;20032;-66
2024/03/19 05:47:16;;;;;;;9.88;4.43;;;6.40;97.70;;;;;;5056303;28;20036;-66
2024/03/19 05:49:42;;;;;;;8.65;3.78;;;6.40;97.90;;;;;;5075267;28;20063;-65
2024/03/19 05:52:09;;;;;;;9.00;3.90;;;6.40;97.90;;;;;;5075832;28;20116;-66
2024/03/19 05:54:34;;;;;;;14.40;4.22;;;6.40;98.00;;;;;;5071506;28;20047;-66
2024/03/19 05:57:00;;;;;;;7.97;4.03;;;6.40;98.00;;;;;;5072137;28;20040;-66
2024/03/19 05:59:25;;;;;;;11.75;4.57;;;6.40;98.00;;;;;;5075666;28;20121;-66
2024/03/19 06:01:52;;;;;;;10.10;4.20;;;6.40;98.30;;;;;;5077765;28;20082;-66
2024/03/19 06:04:17;;;;;;;7.60;3.70;;;6.30;98.20;;;;;;5074421;28;20032;-66
2024/03/19 06:06:43;;;;;;;8.40;4.38;;;6.30;98.30;;;;;;5075159;28;20223;-66
2024/03/19 06:09:10;;;;;;;9.45;3.75;;;6.30;98.30;;;;;;5077333;28;20528;-66
2024/03/19 06:11:35;;;;;;;7.68;4.07;;;6.40;98.30;;;;;;5074667;28;20036;-68
2024/03/19 06:14:01;;;;;;;10.98;4.53;;;6.40;98.40;;;;;;5072034;28;20059;-68
2024/03/19 06:16:27;;;;;;;9.98;4.63;;;6.40;98.40;;;;;;5072353;28;20020;-68
2024/03/19 06:18:52;;;;;;;9.75;4.25;;;6.40;98.40;;;;;;5075739;28;20036;-67
2024/03/19 06:21:18;;;;;;;17.08;4.80;;;6.40;98.50;;;;;;5079761;28;20339;-68
2024/03/19 06:23:44;;;;;;;13.80;4.38;;;6.40;98.40;;;;;;5075837;28;20158;-66
2024/03/19 06:26:09;;;;;;;19.58;4.95;;;6.50;98.50;;;;;;5075250;28;20616;-66
2024/03/19 06:28:35;;;;;;;16.80;5.22;;;6.50;98.50;;;;;;5054868;28;20512;-65
2024/03/19 06:31:00;;;;;;;12.75;4.72;;;6.50;98.50;;;;;;5075564;28;20032;-66
2024/03/19 06:33:26;;;;;;;15.65;5.68;;;6.50;98.70;;;;;;5055667;28;20060;-66
2024/03/19 06:35:52;;;;;;;18.23;6.65;;;6.50;98.70;;;;;;5078290;28;20039;-66
2024/03/19 06:38:17;;;;;;;27.10;6.28;;;6.60;98.50;;;;;;5075149;28;20032;-66
2024/03/19 06:40:45;;;;;;;19.52;6.95;;;6.60;98.50;;;;;;5078084;28;20135;-66
2024/03/19 06:43:10;;;;;;;22.10;6.73;;;6.60;98.60;;;;;;5074715;28;20028;-66
2024/03/19 06:45:36;;;;;;;26.10;7.47;;;6.70;98.70;;;;;;5077195;28;20056;-66
2024/03/19 06:48:01;;;;;;;28.30;6.93;;;6.70;98.60;;;;;;5049858;28;20050;-66
2024/03/19 06:50:27;;;;;;;24.98;7.70;;;6.70;98.50;;;;;;5057775;28;20578;-66
2024/03/19 06:52:53;;;;;;;27.67;7.15;;;6.70;98.50;;;;;;5042075;28;20119;-66
2024/03/19 06:55:21;;;;;;;26.77;6.70;;;6.80;98.60;;;;;;5076775;28;20428;-66
2024/03/19 06:57:48;;;;;;;21.10;6.13;;;6.80;98.50;;;;;;5077626;28;20127;-66
2024/03/19 07:00:14;;;;;;;18.90;5.20;;;6.80;98.70;;;;;;5076902;28;20065;-66
2024/03/19 07:02:41;;;;;;;18.92;5.78;;;6.80;98.60;;;;;;5077641;28;20058;-65
2024/03/19 07:05:08;;;;;;;10.45;4.88;;;6.90;98.60;;;;;;5083179;28;20032;-65
2024/03/19 07:07:34;;;;;;;15.30;5.32;;;6.90;98.60;;;;;;5082267;28;20071;-65
2024/03/19 07:09:59;;;;;;;12.50;4.40;;;7.00;98.60;;;;;;5083057;28;20028;-66
2024/03/19 07:12:25;;;;;;;23.90;4.72;;;7.00;98.60;;;;;;5087426;28;20020;-65
2024/03/19 07:14:52;;;;;;;14.18;4.93;;;7.10;98.60;;;;;;5076724;28;20031;-64
2024/03/19 07:17:17;;;;;;;20.92;5.50;;;7.10;98.60;;;;;;5050398;28;20020;-65
2024/03/19 07:19:43;;;;;;;21.20;4.43;;;7.20;98.60;;;;;;5089381;28;20024;-64
2024/03/19 07:22:10;;;;;;;13.45;5.55;;;7.30;98.50;;;;;;5070450;28;20016;-65
2024/03/19 07:24:36;;;;;;;11.75;4.47;;;7.40;98.60;;;;;;5082535;28;20044;-65
2024/03/19 07:27:02;;;;;;;9.50;4.07;;;7.40;98.50;;;;;;5080689;28;20028;-65
2024/03/19 07:29:27;;;;;;;15.10;4.88;;;7.50;98.40;;;;;;5080881;28;20043;-64
2024/03/19 07:31:54;;;;;;;13.43;4.82;;;7.60;98.50;;;;;;5083310;28;20404;-66
2024/03/19 07:34:20;;;;;;;9.88;4.50;;;7.60;98.30;;;;;;5081719;28;20019;-66
2024/03/19 07:36:45;;;;;;;12.55;4.38;;;7.70;98.30;;;;;;5057170;28;20045;-66
2024/03/19 07:39:14;;;;;;;10.13;4.57;;;7.70;98.20;;;;;;5053097;28;20037;-66
2024/03/19 07:41:40;;;;;;;10.40;4.80;;;7.80;98.20;;;;;;5065490;28;20397;-66
2024/03/19 07:44:07;;;;;;;24.15;5.05;;;7.90;98.20;;;;;;5044357;28;20032;-66
2024/03/19 07:46:32;;;;;;;9.90;4.60;;;8.00;98.10;;;;;;5080679;28;20415;-66
2024/03/19 07:48:59;;;;;;;15.02;4.85;;;8.00;97.90;;;;;;5076862;28;20158;-66
2024/03/19 07:51:26;;;;;;;13.77;5.47;;;8.00;97.90;;;;;;5056851;28;20055;-66
2024/03/19 07:53:52;;;;;;;8.60;4.57;;;8.10;97.90;;;;;;5084356;28;20044;-66
2024/03/19 07:56:18;;;;;;;8.13;4.78;;;8.20;97.90;;;;;;5080466;28;20152;-66
2024/03/19 07:58:43;;;;;;;10.00;4.32;;;8.30;97.80;;;;;;5074760;28;20024;-66
2024/03/19 08:01:09;;;;;;;15.52;5.28;;;8.30;97.80;;;;;;5078494;28;20048;-66
2024/03/19 08:03:35;;;;;;;8.13;4.60;;;8.40;98.00;;;;;;5080889;28;20082;-66
2024/03/19 08:06:04;;;;;;;13.70;5.00;;;8.50;98.00;;;;;;5056768;28;20413;-66
2024/03/19 08:08:29;;;;;;;13.55;4.55;;;8.60;97.90;;;;;;5058985;28;20448;-68
2024/03/19 08:11:01;;;;;;;12.70;5.10;;;8.60;97.80;;;;;;5021546;28;20045;-66
2024/03/19 08:13:26;;;;;;;25.80;5.45;;;8.70;97.80;;;;;;5052345;28;20531;-66
2024/03/19 08:15:52;;;;;;;15.93;5.28;;;8.80;97.80;;;;;;5061134;28;20036;-66
2024/03/19 08:18:17;;;;;;;9.73;5.05;;;8.90;97.70;;;;;;5058790;28;20048;-66
2024/03/19 08:20:45;;;;;;;12.40;5.18;;;9.00;97.70;;;;;;5058963;28;20037;-66
2024/03/19 08:23:13;;;;;;;13.73;5.47;;;9.10;97.60;;;;;;5072675;28;20493;-66
2024/03/19 08:25:39;;;;;;;15.35;5.45;;;9.30;97.70;;;;;;5073959;28;20112;-66
2024/03/19 08:28:05;;;;;;;15.60;5.88;;;9.30;97.50;;;;;;5078935;28;20036;-66
2024/03/19 08:30:31;;;;;;;13.85;5.30;;;9.50;97.60;;;;;;5073001;28;20044;-66
2024/03/19 08:32:58;;;;;;;15.52;5.68;;;9.50;97.50;;;;;;5080584;28;20038;-66
2024/03/19 08:35:23;;;;;;;17.98;6.43;;;9.70;97.60;;;;;;5066561;28;20123;-66
2024/03/19 08:37:49;;;;;;;10.27;5.90;;;9.70;97.30;;;;;;5069227;28;20127;-66
2024/03/19 08:40:15;;;;;;;18.90;6.45;;;9.80;97.50;;;;;;5076344;28;20417;-66
2024/03/19 08:42:41;;;;;;;25.63;6.68;;;9.80;97.40;;;;;;5074881;28;20050;-66
2024/03/19 08:45:13;;;;;;;13.77;6.38;;;10.00;96.80;;;;;;5074453;28;20039;-66
2024/03/19 08:47:39;;;;;;;15.85;7.32;;;10.10;96.90;;;;;;5073996;28;20086;-66
2024/03/19 08:50:09;;;;;;;17.40;7.13;;;10.20;96.90;;;;;;5085797;28;20627;-66
2024/03/19 08:52:35;;;;;;;14.25;7.75;;;10.30;96.80;;;;;;5079350;28;20735;-66
2024/03/19 08:55:02;;;;;;;15.88;7.70;;;10.40;96.90;;;;;;5072522;28;20079;-66
2024/03/19 08:57:27;;;;;;;16.02;7.38;;;10.50;96.70;;;;;;5074645;28;20505;-66
2024/03/19 08:59:53;;;;;;;20.63;7.68;;;10.50;96.80;;;;;;5079771;28;20040;-67
2024/03/19 09:02:19;;;;;;;15.27;8.07;;;10.60;96.90;;;;;;5077523;28;20032;-66
2024/03/19 09:04:45;;;;;;;20.48;8.30;;;10.60;96.80;;;;;;5080029;28;20047;-67
2024/03/19 09:07:11;;;;;;;19.23;7.45;;;10.70;96.80;;;;;;5080138;28;20389;-67
2024/03/19 09:09:37;;;;;;;14.70;7.65;;;10.80;96.90;;;;;;5077421;28;20138;-67
2024/03/19 09:12:03;;;;;;;14.55;8.48;;;10.80;96.70;;;;;;5066079;28;20495;-67
2024/03/19 09:14:29;;;;;;;13.68;7.78;;;10.90;96.80;;;;;;5058566;28;20060;-67
2024/03/19 09:16:54;;;;;;;18.98;7.70;;;11.00;96.90;;;;;;5067826;28;20774;-67
2024/03/19 09:19:20;;;;;;;15.98;7.95;;;11.10;96.90;;;;;;5079883;28;20020;-67
2024/03/19 09:21:46;;;;;;;16.85;8.00;;;11.10;96.80;;;;;;5081346;28;20024;-67
2024/03/19 09:24:11;;;;;;;20.75;8.43;;;11.30;96.90;;;;;;5075666;28;20508;-67
2024/03/19 09:26:37;;;;;;;16.50;7.63;;;11.40;96.90;;;;;;5057354;28;20390;-67
2024/03/19 09:29:02;;;;;;;15.15;8.50;;;11.60;96.80;;;;;;5073580;28;20083;-67
2024/03/19 09:31:28;;;;;;;19.95;9.00;;;11.60;96.70;;;;;;5077908;28;20109;-66
2024/03/19 09:33:54;;;;;;;17.60;8.40;;;11.70;96.70;;;;;;5080074;28;20032;-66
2024/03/19 09:36:19;;;;;;;17.30;9.10;;;11.80;96.70;;;;;;5079558;28;20025;-66
2024/03/19 09:38:48;;;;;;;20.10;8.75;;;11.90;96.80;;;;;;5083499;28;20083;-66
2024/03/19 09:41:15;;;;;;;20.27;9.82;;;12.00;96.60;;;;;;5079877;28;20025;-67
2024/03/19 09:43:42;;;;;;;27.00;10.93;;;12.10;96.90;;;;;;5077175;28;20025;-67
2024/03/19 09:46:10;;;;;;;24.65;10.57;;;12.20;97.10;;;;;;5076640;28;20020;-67
2024/03/19 09:48:39;;;;;;;22.48;11.32;;;12.30;97.00;;;;;;5080523;28;20120;-67
2024/03/19 09:51:05;;;;;;;24.88;11.85;;;12.40;97.00;;;;;;5074363;28;20028;-66
2024/03/19 09:53:32;;;;;;;27.77;12.02;;;12.50;97.10;;;;;;5083579;28;20150;-67
2024/03/19 09:55:58;;;;;;;23.70;12.40;;;12.60;97.20;;;;;;5076626;28;20038;-67
2024/03/19 09:58:24;;;;;;;24.55;11.40;;;12.90;97.40;;;;;;5087759;28;20305;-66
2024/03/19 10:00:53;;;;;;;27.08;12.38;;;13.10;97.30;;;;;;5080271;28;20032;-66
2024/03/19 10:03:19;;;;;;;30.83;13.48;;;13.30;97.20;;;;;;5078785;28;20025;-66
2024/03/19 10:05:45;;;;;;;28.30;12.30;;;13.40;97.20;;;;;;5082643;28;20090;-66
2024/03/19 10:08:15;;;;;;;31.13;13.75;;;13.40;96.90;;;;;;5076567;28;20032;-66
2024/03/19 10:10:45;;;;;;;25.67;13.00;;;13.60;97.20;;;;;;5060054;28;20029;-65
2024/03/19 10:13:12;;;;;;;28.90;13.88;;;13.70;97.00;;;;;;5065331;28;20416;-65
2024/03/19 10:15:37;;;;;;;25.35;12.85;;;14.00;96.90;;;;;;5058539;28;20136;-66
2024/03/19 10:18:06;;;;;;;26.00;13.23;;;14.10;97.00;;;;;;5079055;28;20127;-65
2024/03/19 10:20:32;;;;;;;27.40;13.70;;;14.30;96.80;;;;;;5074088;28;20056;-66
2024/03/19 10:23:00;;;;;;;27.85;13.70;;;14.40;96.60;;;;;;5074444;28;20123;-66
2024/03/19 10:25:26;;;;;;;32.50;14.15;;;14.50;96.60;;;;;;5077140;28;20439;-65
2024/03/19 10:27:52;;;;;;;29.73;14.27;;;14.60;96.40;;;;;;5076367;28;20036;-65
2024/03/19 10:30:20;;;;;;;25.95;13.38;;;14.80;96.40;;;;;;5076745;28;20396;-68
2024/03/19 10:32:46;;;;;;;38.08;14.98;;;15.00;96.40;;;;;;5079049;28;20060;-66
2024/03/19 10:35:22;;;;;;;29.13;15.00;;;15.20;96.30;;;;;;5065338;28;20063;-66
2024/03/19 10:37:52;;;;;;;29.90;14.52;;;15.50;96.00;;;;;;5078180;28;20492;-66
2024/03/19 10:40:19;;;;;;;27.50;13.73;;;15.90;96.50;;;;;;5074127;28;20075;-66
2024/03/19 10:42:48;;;;;;;34.50;13.35;;;16.40;96.60;;;;;;5077421;28;20203;-65
2024/03/19 10:45:25;;;;;;;27.50;12.68;;;16.50;95.10;;;;;;5073449;28;20044;-66
2024/03/19 10:47:52;;;;;;;24.90;13.20;;;16.80;95.50;;;;;;5071856;28;20043;-65
2024/03/19 10:50:19;;;;;;;25.73;13.02;;;17.10;95.30;;;;;;5074017;28;20111;-66
2024/03/19 10:53:03;;;;;;;23.65;13.55;;;17.00;94.60;;;;;;5076764;28;20031;-66
2024/03/19 10:55:31;;;;;;;26.85;13.63;;;17.20;94.60;;;;;;5075107;28;20036;-66
2024/03/19 10:58:01;;;;;;;25.80;14.35;;;17.40;94.20;;;;;;5081368;28;20055;-66
2024/03/19 11:00:27;;;;;;;28.45;14.02;;;17.30;94.30;;;;;;5058407;28;20032;-66
2024/03/19 11:02:59;;;;;;;31.63;14.65;;;17.30;94.30;;;;;;5078183;28;20040;-66
2024/03/19 11:05:26;;;;;;;28.00;14.57;;;17.70;94.30;;;;;;5078675;28;20032;-66
2024/03/19 11:07:54;;;;;;;33.53;15.00;;;18.10;93.80;;;;;;5081750;28;20174;-66
2024/03/19 11:10:30;;;;;;;28.63;14.90;;;18.40;93.40;;;;;;5078866;28;20028;-66
2024/03/19 11:13:08;;;;;;;29.40;14.23;;;18.40;92.90;;;;;;5080639;28;20040;-67
2024/03/19 11:15:35;;;;;;;25.02;13.70;;;18.30;92.90;;;;;;5079970;28;20493;-67
2024/03/19 11:18:10;;;;;;;29.08;14.00;;;18.30;92.70;;;;;;5083627;28;20619;-66
2024/03/19 11:20:36;;;;;;;26.77;13.18;;;18.50;92.90;;;;;;5080217;28;20040;-66
2024/03/19 11:23:05;;;;;;;31.25;14.68;;;18.40;92.70;;;;;;5077044;28;20040;-67
2024/03/19 11:25:31;;;;;;;23.92;13.63;;;18.40;93.00;;;;;;5074494;28;20029;-67
2024/03/19 11:27:57;;;;;;;30.02;13.02;;;18.90;93.00;;;;;;5075141;28;20128;-67
2024/03/19 11:30:22;;;;;;;28.23;14.27;;;19.40;92.20;;;;;;5075415;28;20042;-67
2024/03/19 11:32:49;;;;;;;28.25;13.63;;;19.40;92.30;;;;;;5073774;28;20406;-65
2024/03/19 11:35:22;;;;;;;24.80;12.95;;;19.10;92.00;;;;;;5059577;28;20040;-70
2024/03/19 11:37:49;;;;;;;29.73;15.20;;;19.10;91.80;;;;;;5074938;28;20553;-67
2024/03/19 11:40:16;;;;;;;27.87;14.07;;;19.10;91.70;;;;;;5062138;28;20484;-66
2024/03/19 11:42:44;;;;;;;24.08;12.65;;;19.40;91.60;;;;;;5073255;28;20058;-66
2024/03/19 11:45:14;;;;;;;31.20;13.55;;;19.20;91.60;;;;;;5074749;28;20033;-67
2024/03/19 11:47:40;;;;;;;25.13;13.23;;;19.20;92.40;;;;;;5075007;28;20028;-66
2024/03/19 11:50:18;;;;;;;24.20;13.60;;;19.40;91.80;;;;;;5074386;28;20039;-67
2024/03/19 11:52:47;;;;;;;28.45;13.95;;;19.50;91.30;;;;;;5061656;28;20099;-67
2024/03/19 11:55:15;;;;;;;22.50;13.20;;;19.50;91.10;;;;;;5066506;28;20046;-66
2024/03/19 11:57:40;;;;;;;26.85;13.55;;;19.50;91.20;;;;;;5078823;28;20087;-67
2024/03/19 12:00:13;;;;;;;24.73;12.65;;;19.30;90.70;;;;;;5078037;28;20043;-66
2024/03/19 12:02:42;;;;;;;23.48;13.63;;;19.10;90.90;;;;;;5062744;28;20037;-67
2024/03/19 12:05:16;;;;;;;28.30;13.77;;;18.90;91.10;;;;;;5068649;28;20540;-67
2024/03/19 12:07:48;;;;;;;24.10;13.48;;;18.80;91.10;;;;;;5076088;28;20029;-67
2024/03/19 12:10:22;;;;;;;24.25;12.77;;;18.90;91.20;;;;;;5079835;28;20024;-67
2024/03/19 12:12:52;;;;;;;25.95;13.45;;;18.90;91.50;;;;;;5075415;28;20032;-65
2024/03/19 12:15:19;;;;;;;24.83;13.93;;;18.70;91.60;;;;;;5081554;28;20033;-67
2024/03/19 12:17:48;;;;;;;30.08;14.32;;;18.80;91.70;;;;;;5079276;28;20043;-66
2024/03/19 12:20:15;;;;;;;25.88;13.05;;;18.70;91.50;;;;;;5082012;28;20048;-66
2024/03/19 12:22:41;;;;;;;32.03;14.50;;;18.60;91.60;;;;;;5078926;28;20042;-66
2024/03/19 12:25:11;;;;;;;31.83;15.13;;;18.50;91.70;;;;;;5085770;28;20100;-66
2024/03/19 12:27:40;;;;;;;28.58;14.00;;;18.40;92.30;;;;;;5077377;28;20789;-66
2024/03/19 12:30:13;;;;;;;29.63;14.45;;;18.30;92.20;;;;;;5082057;28;20139;-66
2024/03/19 12:35:33;;;;;;;28.92;14.38;;;18.50;92.30;;;;;;5084000;28;20043;-66
2024/03/19 12:37:59;;;;;;;29.88;13.77;;;18.60;92.40;;;;;;5083707;28;20120;-66
2024/03/19 12:40:25;;;;;;;28.83;13.73;;;19.20;92.00;;;;;;5082545;28;20451;-67
2024/03/19 12:42:54;;;;;;;29.05;14.57;;;19.60;91.80;;;;;;5076632;28;20032;-66
2024/03/19 12:45:20;;;;;;;28.17;13.52;;;19.50;92.10;;;;;;5081887;28;20067;-67